Time;durP1;ratioP1;P1;durP2;ratioP2;P2;SDS_P1;SDS_P2;PMS_P1;PMS_P2;Temp;Humidity;BMP_temperature;BMP_pressure;BME280_temperature;BME280_humidity;BME280_pressure;Samples;Min_cycle;Max_cycle;Signal;HPM_P1;HPM_P2
2023/06/05 00:01:17;;;;;;;4.93;3.45;;;;;;;10.98;100.00;102247.91;5020009;28;20744;-90
2023/06/05 00:03:43;;;;;;;8.38;4.00;;;;;;;10.98;100.00;102255.97;5000441;28;20173;-91
2023/06/05 00:06:16;;;;;;;5.70;3.53;;;;;;;10.99;100.00;102252.34;5032946;28;20231;-90
2023/06/05 00:08:42;;;;;;;4.60;3.65;;;;;;;10.90;100.00;102252.50;5023055;28;20204;-90
2023/06/05 00:11:12;;;;;;;5.07;3.72;;;;;;;10.75;100.00;102242.03;5022459;28;20247;-91
2023/06/05 00:13:37;;;;;;;7.35;4.43;;;;;;;10.81;100.00;102248.19;5039089;28;20330;-90
2023/06/05 00:16:06;;;;;;;4.57;3.85;;;;;;;10.90;100.00;102253.38;5009274;28;20607;-90
2023/06/05 00:18:31;;;;;;;6.45;3.80;;;;;;;10.85;100.00;102255.28;5029555;28;20227;-90
2023/06/05 00:20:57;;;;;;;4.10;3.70;;;;;;;10.77;100.00;102243.78;5022640;28;20198;-90
2023/06/05 00:23:23;;;;;;;7.03;3.88;;;;;;;10.72;100.00;102243.88;5022485;28;20172;-90
2023/06/05 00:25:58;;;;;;;8.50;5.00;;;;;;;10.55;100.00;102256.63;5015462;28;20331;-91
2023/06/05 00:28:27;;;;;;;7.40;4.72;;;;;;;10.53;100.00;102255.78;5019127;28;20180;-91
2023/06/05 00:30:53;;;;;;;6.22;4.43;;;;;;;10.62;100.00;102254.75;5006524;28;20195;-89
2023/06/05 00:33:24;;;;;;;7.03;4.72;;;;;;;10.53;100.00;102258.47;5024949;28;20271;-89
2023/06/05 00:35:53;;;;;;;6.35;3.67;;;;;;;10.54;100.00;102262.94;5039672;28;20184;-89
2023/06/05 00:38:22;;;;;;;5.82;4.38;;;;;;;10.44;100.00;102254.13;5030326;28;20546;-90
2023/06/05 00:40:47;;;;;;;5.60;3.80;;;;;;;10.55;100.00;102253.97;5044767;28;20175;-90
2023/06/05 00:43:13;;;;;;;3.55;3.30;;;;;;;10.55;100.00;102245.91;5041630;28;20179;-89
2023/06/05 00:45:39;;;;;;;3.90;3.45;;;;;;;10.41;100.00;102261.34;5022434;28;20180;-89
2023/06/05 00:48:06;;;;;;;4.82;3.92;;;;;;;10.46;100.00;102251.44;5040487;28;20195;-90
2023/06/05 00:50:33;;;;;;;4.68;3.75;;;;;;;10.41;100.00;102254.19;5012574;28;20188;-90
2023/06/05 00:53:01;;;;;;;5.47;3.80;;;;;;;10.33;100.00;102257.88;5034522;28;20217;-90
2023/06/05 00:55:27;;;;;;;5.65;4.03;;;;;;;10.26;100.00;102262.41;5031908;28;20267;-90
2023/06/05 00:57:54;;;;;;;5.40;3.33;;;;;;;10.21;100.00;102257.13;5011112;28;20236;-89
2023/06/05 01:00:22;;;;;;;4.53;3.30;;;;;;;10.20;100.00;102249.97;5037748;28;20256;-90
2023/06/05 01:02:52;;;;;;;8.63;3.83;;;;;;;10.18;100.00;102254.47;5042389;28;20180;-90
2023/06/05 01:05:20;;;;;;;5.30;3.67;;;;;;;10.07;100.00;102253.72;5024651;28;20250;-89
2023/06/05 01:07:48;;;;;;;7.10;3.42;;;;;;;10.10;100.00;102245.63;5038191;28;20188;-89
2023/06/05 01:10:14;;;;;;;5.90;3.92;;;;;;;9.96;100.00;102243.16;5018006;28;20562;-90
2023/06/05 01:12:53;;;;;;;4.47;3.60;;;;;;;10.00;100.00;102242.19;5036936;28;20192;-90
2023/06/05 01:15:28;;;;;;;5.45;3.67;;;;;;;9.90;100.00;102248.56;5019142;28;20180;-90
2023/06/05 01:17:58;;;;;;;4.50;3.42;;;;;;;9.99;100.00;102248.47;5022742;28;20207;-90
2023/06/05 01:20:37;;;;;;;4.40;3.97;;;;;;;9.98;100.00;102240.47;5039915;28;20697;-90
2023/06/05 01:23:07;;;;;;;4.80;4.40;;;;;;;9.83;100.00;102242.41;5041305;28;20171;-89
2023/06/05 01:25:34;;;;;;;5.90;4.45;;;;;;;9.81;100.00;102238.88;5034369;28;20249;-88
2023/06/05 01:28:10;;;;;;;6.25;4.38;;;;;;;9.82;100.00;102237.09;5037293;28;20216;-90
2023/06/05 01:31:00;;;;;;;7.47;4.55;;;;;;;9.74;100.00;102231.81;5040596;28;20213;-88
2023/06/05 01:33:34;;;;;;;4.10;3.70;;;;;;;9.74;100.00;102237.19;5017874;28;20294;-90
2023/06/05 01:36:04;;;;;;;5.85;4.60;;;;;;;9.75;100.00;102230.94;5003025;28;20206;-90
2023/06/05 01:38:34;;;;;;;4.25;3.65;;;;;;;9.69;100.00;102231.00;5050342;28;20204;-89
2023/06/05 01:41:03;;;;;;;4.47;3.97;;;;;;;9.78;100.00;102227.34;5033829;28;20187;-89
2023/06/05 01:43:30;;;;;;;7.45;4.53;;;;;;;9.68;100.00;102226.53;5022159;28;21086;-89
2023/06/05 01:46:00;;;;;;;5.82;4.90;;;;;;;9.71;100.00;102229.19;5020745;28;20184;-89
2023/06/05 01:48:30;;;;;;;5.35;4.38;;;;;;;9.64;100.00;102232.84;5023883;28;20195;-89
2023/06/05 01:50:58;;;;;;;6.85;5.15;;;;;;;9.58;100.00;102227.56;5039914;28;20188;-89
2023/06/05 01:53:31;;;;;;;6.03;4.90;;;;;;;9.64;100.00;102228.38;5028463;28;20222;-89
2023/06/05 01:56:00;;;;;;;5.45;4.90;;;;;;;9.52;100.00;102230.31;5029800;28;20188;-90
2023/06/05 01:58:37;;;;;;;5.60;4.47;;;;;;;9.55;100.00;102224.91;4993168;28;20223;-90
2023/06/05 02:01:05;;;;;;;7.78;4.82;;;;;;;9.52;100.00;102222.28;5045913;28;20537;-89
2023/06/05 02:03:31;;;;;;;8.10;4.90;;;;;;;9.21;100.00;102226.19;5050761;28;20172;-90
2023/06/05 02:05:57;;;;;;;5.50;4.60;;;;;;;9.36;100.00;102219.78;5052612;28;20230;-90
2023/06/05 02:08:38;;;;;;;5.53;5.13;;;;;;;9.27;100.00;102220.78;5041012;28;20623;-90
2023/06/05 02:11:09;;;;;;;5.55;4.70;;;;;;;9.23;100.00;102223.50;5034247;28;20550;-90
2023/06/05 02:13:39;;;;;;;7.65;4.88;;;;;;;9.19;100.00;102224.44;5037376;28;20160;-89
2023/06/05 02:16:09;;;;;;;6.88;5.00;;;;;;;9.30;100.00;102225.19;5024513;28;20211;-89
2023/06/05 02:18:37;;;;;;;8.38;4.85;;;;;;;9.25;100.00;102235.94;5045905;22;20223;-49
2023/06/05 02:21:03;;;;;;;4.97;4.47;;;;;;;9.21;100.00;102230.66;5038110;28;20668;-49
2023/06/05 02:23:29;;;;;;;5.90;5.28;;;;;;;9.15;100.00;102228.91;5038504;28;20191;-49
2023/06/05 02:25:55;;;;;;;8.48;5.35;;;;;;;9.04;100.00;102233.47;5041288;28;20196;-49
2023/06/05 02:28:21;;;;;;;5.60;5.10;;;;;;;9.00;100.00;102232.59;5039009;28;20183;-50
2023/06/05 02:30:47;;;;;;;7.53;5.55;;;;;;;8.94;100.00;102223.75;5043317;28;20262;-49
2023/06/05 02:33:14;;;;;;;7.50;5.13;;;;;;;8.86;100.00;102223.84;5041354;28;20563;-52
2023/06/05 02:35:40;;;;;;;6.28;4.90;;;;;;;8.93;100.00;102222.00;5039106;28;20208;-50
2023/06/05 02:38:09;;;;;;;5.90;5.00;;;;;;;8.91;100.00;102230.03;5025259;28;20329;-49
2023/06/05 02:40:36;;;;;;;6.97;5.45;;;;;;;8.94;100.00;102215.75;5037821;28;20176;-50
2023/06/05 02:43:02;;;;;;;6.40;4.95;;;;;;;8.95;100.00;102222.88;5053370;28;20242;-50
2023/06/05 02:45:28;;;;;;;6.72;5.43;;;;;;;8.79;100.00;102231.03;5022743;28;20203;-51
2023/06/05 02:47:54;;;;;;;5.85;5.03;;;;;;;8.86;100.00;102224.72;5034615;28;20282;-50
2023/06/05 02:50:19;;;;;;;5.63;4.88;;;;;;;8.90;100.00;102224.69;5037973;28;20279;-49
2023/06/05 02:52:49;;;;;;;6.35;5.68;;;;;;;8.84;100.00;102222.97;5044882;28;20667;-50
2023/06/05 02:55:32;;;;;;;7.35;5.57;;;;;;;8.89;100.00;102214.91;5040294;28;20207;-49
2023/06/05 02:58:00;;;;;;;7.22;6.20;;;;;;;8.74;100.00;102215.91;5037244;28;20273;-49
2023/06/05 03:00:34;;;;;;;5.72;5.22;;;;;;;8.83;100.00;102216.75;5045024;28;20179;-50
2023/06/05 03:03:00;;;;;;;6.43;5.78;;;;;;;8.77;100.00;102218.59;5033190;28;20302;-52
2023/06/05 03:05:30;;;;;;;6.07;5.40;;;;;;;8.83;100.00;102226.53;5038551;28;20222;-49
2023/06/05 03:08:01;;;;;;;7.50;5.82;;;;;;;8.69;100.00;102218.63;5036326;28;20175;-50
2023/06/05 03:10:27;;;;;;;6.15;5.53;;;;;;;8.69;100.00;102218.63;5036270;28;20246;-49
2023/06/05 03:12:54;;;;;;;8.45;5.75;;;;;;;8.70;100.00;102227.53;5040365;28;20183;-50
2023/06/05 03:15:21;;;;;;;5.85;5.35;;;;;;;8.77;100.00;102226.59;5039802;28;20187;-49
2023/06/05 03:17:49;;;;;;;7.30;6.00;;;;;;;8.78;100.00;102220.34;5039598;28;20208;-50
2023/06/05 03:20:18;;;;;;;6.30;5.72;;;;;;;8.74;100.00;102218.59;5041068;28;20194;-50
2023/06/05 03:22:43;;;;;;;7.28;6.00;;;;;;;8.74;100.00;102210.56;5037231;28;20263;-50
2023/06/05 03:25:09;;;;;;;6.35;5.28;;;;;;;8.77;100.00;102222.13;5041587;28;20774;-51
2023/06/05 03:27:37;;;;;;;8.90;5.97;;;;;;;8.82;100.00;102222.97;5039404;28;20192;-50
2023/06/05 03:30:04;;;;;;;7.90;5.97;;;;;;;8.82;100.00;102227.44;5040140;28;20246;-51
2023/06/05 03:32:34;;;;;;;6.82;5.53;;;;;;;8.78;100.00;102223.88;5036566;28;20610;-51
2023/06/05 03:34:59;;;;;;;5.97;5.30;;;;;;;8.82;100.00;102232.78;5038560;28;20226;-51
2023/06/05 03:37:25;;;;;;;6.63;5.60;;;;;;;8.90;100.00;102227.34;5042813;28;20657;-50
2023/06/05 03:39:51;;;;;;;6.00;5.13;;;;;;;8.92;100.00;102223.78;5038092;28;20282;-51
2023/06/05 03:42:16;;;;;;;7.45;5.55;;;;;;;9.00;100.00;102229.94;5039083;28;20199;-52
2023/06/05 03:44:42;;;;;;;6.45;5.80;;;;;;;8.91;100.00;102227.34;5034438;28;20171;-53
2023/06/05 03:47:07;;;;;;;6.18;5.57;;;;;;;8.87;100.00;102228.28;5031805;28;20208;-50
2023/06/05 03:49:35;;;;;;;7.95;6.32;;;;;;;8.94;100.00;102224.63;5038488;28;20300;-52
2023/06/05 03:52:02;;;;;;;8.07;5.82;;;;;;;8.90;100.00;102222.91;5037343;28;20190;-52
2023/06/05 03:54:28;;;;;;;6.80;5.53;;;;;;;9.04;100.00;102209.41;5043012;28;20184;-52
2023/06/05 03:56:55;;;;;;;7.57;6.05;;;;;;;8.94;100.00;102219.28;5038840;28;20752;-50
2023/06/05 03:59:23;;;;;;;7.97;6.60;;;;;;;9.10;100.00;102221.84;5040772;28;20200;-51
2023/06/05 04:01:56;;;;;;;7.60;6.00;;;;;;;9.15;100.00;102225.34;5037268;28;20226;-52
2023/06/05 04:04:22;;;;;;;6.57;5.97;;;;;;;9.19;100.00;102238.69;5037874;28;20211;-51
2023/06/05 04:06:51;;;;;;;11.02;7.13;;;;;;;9.27;100.00;102225.22;5042323;28;20238;-50
2023/06/05 04:09:17;;;;;;;10.55;8.23;;;;;;;9.34;100.00;102232.28;5036788;28;20638;-51
2023/06/05 04:11:44;;;;;;;13.82;7.82;;;;;;;9.29;100.00;102234.09;5040168;28;20172;-52
2023/06/05 04:14:11;;;;;;;11.63;8.60;;;;;;;9.36;100.00;102238.50;5037576;28;20196;-51
2023/06/05 04:16:42;;;;;;;8.90;8.00;;;;;;;9.46;100.00;102242.84;5033940;28;20295;-50
2023/06/05 04:19:11;;;;;;;16.52;8.90;;;;;;;9.38;100.00;102241.16;5038113;28;20231;-50
2023/06/05 04:21:39;;;;;;;13.43;9.23;;;;;;;9.33;100.00;102248.34;5039673;28;20498;-54
2023/06/05 04:24:12;;;;;;;9.60;8.55;;;;;;;9.55;100.00;102249.00;5034620;28;20182;-56
2023/06/05 04:26:39;;;;;;;11.77;7.82;;;;;;;9.51;100.00;102241.91;5053519;22;20227;-56
2023/06/05 04:29:15;;;;;;;13.80;8.77;;;;;;;9.51;100.00;102244.59;5054655;28;20170;-53
2023/06/05 04:31:43;;;;;;;15.13;9.13;;;;;;;9.58;100.00;102249.88;5063847;28;20186;-55
2023/06/05 04:34:09;;;;;;;14.45;9.38;;;;;;;9.69;100.00;102247.94;5057489;28;20559;-52
2023/06/05 04:36:34;;;;;;;10.57;8.27;;;;;;;9.82;100.00;102247.81;5055243;28;20753;-53
2023/06/05 04:39:13;;;;;;;15.15;9.30;;;;;;;9.80;100.00;102239.78;5057178;28;20297;-55
2023/06/05 04:41:44;;;;;;;11.18;8.25;;;;;;;9.98;100.00;102248.50;5059077;28;20278;-54
2023/06/05 04:44:12;;;;;;;10.73;8.73;;;;;;;9.83;100.00;102245.09;5062825;28;20171;-55
2023/06/05 04:46:39;;;;;;;10.57;8.73;;;;;;;9.96;100.00;102236.91;5055197;28;20510;-55
2023/06/05 04:49:09;;;;;;;9.60;8.40;;;;;;;10.00;100.00;102236.84;5056750;28;20223;-53
2023/06/05 04:51:36;;;;;;;12.05;8.85;;;;;;;10.14;100.00;102241.13;5059379;28;20183;-53
2023/06/05 04:54:03;;;;;;;14.70;9.38;;;;;;;10.09;100.00;102233.16;5065780;28;20229;-52
2023/06/05 04:56:32;;;;;;;10.00;8.10;;;;;;;10.24;100.00;102240.97;5061211;28;20203;-52
2023/06/05 04:58:59;;;;;;;11.70;8.57;;;;;;;10.33;100.00;102233.75;5058282;28;20191;-52
2023/06/05 05:01:27;;;;;;;12.50;8.23;;;;;;;10.38;100.00;102243.50;5065453;28;20179;-49
2023/06/05 05:03:54;;;;;;;11.35;8.48;;;;;;;10.47;100.00;102242.47;5066426;28;20222;-50
2023/06/05 05:06:21;;;;;;;11.77;8.85;;;;;;;10.23;100.00;102239.22;5062368;28;20226;-49
2023/06/05 05:08:48;;;;;;;12.55;8.63;;;;;;;10.27;100.00;102238.25;5062378;28;20181;-49
2023/06/05 05:11:15;;;;;;;10.55;8.48;;;;;;;10.34;100.00;102240.88;5054364;28;20187;-50
2023/06/05 05:13:42;;;;;;;15.15;8.55;;;;;;;10.15;100.00;102238.44;5058823;28;20195;-49
2023/06/05 05:16:07;;;;;;;10.43;8.50;;;;;;;10.35;100.00;102245.34;5063011;28;20244;-51
2023/06/05 05:18:44;;;;;;;14.95;9.15;;;;;;;10.38;100.00;102240.81;5066868;28;20219;-50
2023/06/05 05:21:10;;;;;;;13.77;8.50;;;;;;;10.26;100.00;102249.00;5065408;28;20269;-49
2023/06/05 05:23:35;;;;;;;12.68;8.57;;;;;;;10.25;100.00;102239.19;5059700;28;20278;-51
2023/06/05 05:26:02;;;;;;;10.88;8.52;;;;;;;10.57;100.00;102244.09;5057553;28;20293;-51
2023/06/05 05:28:28;;;;;;;13.60;8.70;;;;;;;10.86;100.00;102246.31;5060363;28;20175;-51
2023/06/05 05:30:57;;;;;;;15.45;9.23;;;;;;;10.62;100.00;102252.06;5066976;28;20201;-52
2023/06/05 05:33:23;;;;;;;11.70;7.80;;;;;;;10.84;100.00;102257.97;5080988;28;20182;-50
2023/06/05 05:35:48;;;;;;;10.93;8.00;;;;;;;10.99;100.00;102249.66;5062154;28;20683;-49
2023/06/05 05:38:16;;;;;;;10.80;7.60;;;;;;;11.25;100.00;102240.28;5061943;28;20200;-50
2023/06/05 05:40:42;;;;;;;12.20;8.98;;;;;;;11.37;100.00;102233.78;5063066;28;20205;-51
2023/06/05 05:43:08;;;;;;;13.70;8.60;;;;;;;11.24;100.00;102235.81;5053320;28;20646;-49
2023/06/05 05:45:33;;;;;;;18.30;9.15;;;;;;;11.05;100.00;102235.28;5077248;28;20203;-50
2023/06/05 05:47:59;;;;;;;13.73;8.73;;;;;;;10.99;100.00;102230.03;5059697;28;20171;-52
2023/06/05 05:50:25;;;;;;;14.75;8.65;;;;;;;11.20;100.00;102234.13;5060641;28;20236;-50
2023/06/05 05:52:52;;;;;;;11.93;8.23;;;;;;;11.29;100.00;102234.81;5056146;28;20641;-50
2023/06/05 05:55:18;;;;;;;14.13;9.13;;;;;;;11.13;100.00;102244.97;5060144;28;20183;-50
2023/06/05 05:57:43;;;;;;;16.70;9.77;;;;;;;10.92;100.00;102250.69;5059424;28;20203;-49
2023/06/05 06:00:12;;;;;;;14.02;9.85;;;;;;;10.88;100.00;102244.47;5056113;28;20178;-51
2023/06/05 06:02:41;;;;;;;15.65;10.27;;;;;;;10.89;100.00;102251.63;5053605;28;20394;-50
2023/06/05 06:05:07;;;;;;;15.32;11.07;;;;;;;10.97;100.00;102254.16;5059204;28;20171;-51
2023/06/05 06:07:32;;;;;;;13.57;10.27;;;;;;;10.90;100.00;102250.72;5061165;28;20294;-51
2023/06/05 06:09:58;;;;;;;14.18;10.15;;;;;;;11.12;100.00;102245.84;5059404;28;20177;-53
2023/06/05 06:12:24;;;;;;;12.15;10.02;;;;;;;11.07;100.00;102246.88;5056291;28;20675;-52
2023/06/05 06:14:50;;;;;;;14.05;10.15;;;;;;;11.09;100.00;102237.88;5053391;28;20236;-51
2023/06/05 06:17:16;;;;;;;15.38;10.93;;;;;;;11.19;100.00;102251.13;5062753;28;20318;-49
2023/06/05 06:19:42;;;;;;;13.93;9.93;;;;;;;11.34;100.00;102245.47;5060649;28;20202;-49
2023/06/05 06:22:11;;;;;;;13.15;9.35;;;;;;;11.36;100.00;102243.66;5055484;28;20230;-49
2023/06/05 06:24:41;;;;;;;13.57;9.35;;;;;;;11.81;100.00;102245.47;5058610;28;20183;-51
2023/06/05 06:27:12;;;;;;;14.40;9.13;;;;;;;11.78;100.00;102235.66;5060557;28;20202;-50
2023/06/05 06:29:48;;;;;;;11.60;9.02;;;;;;;12.00;100.00;102243.28;5057308;28;20221;-49
2023/06/05 06:32:14;;;;;;;12.45;8.57;;;;;;;11.98;100.00;102240.63;5058978;28;20176;-49
2023/06/05 06:34:42;;;;;;;10.45;8.75;;;;;;;12.20;100.00;102237.47;5063298;28;20292;-51
2023/06/05 06:37:09;;;;;;;11.93;8.30;;;;;;;12.58;100.00;102237.47;5054181;28;20573;-49
2023/06/05 06:39:34;;;;;;;12.02;8.48;;;;;;;12.57;100.00;102229.44;5057399;28;20640;-51
2023/06/05 06:42:00;;;;;;;12.02;8.60;;;;;;;12.29;100.00;102243.56;5066116;28;20175;-49
2023/06/05 06:44:31;;;;;;;13.60;9.05;;;;;;;12.26;100.00;102235.53;5066533;28;20204;-53
2023/06/05 06:46:57;;;;;;;11.73;9.23;;;;;;;12.36;100.00;102238.91;5070674;28;20676;-48
2023/06/05 06:49:22;;;;;;;14.50;8.85;;;;;;;12.70;100.00;102233.63;5070029;28;20238;-48
2023/06/05 06:51:47;;;;;;;11.07;8.30;;;;;;;12.90;100.00;102234.91;5050567;28;20695;-47
2023/06/05 06:54:13;;;;;;;9.38;8.38;;;;;;;12.94;100.00;102232.13;5050709;28;20242;-46
2023/06/05 06:56:38;;;;;;;10.77;8.45;;;;;;;13.20;100.00;102226.03;5064752;28;20250;-46
2023/06/05 06:59:14;;;;;;;10.07;8.13;;;;;;;13.29;100.00;102230.31;5070395;28;20191;-46
2023/06/05 07:01:47;;;;;;;13.80;8.25;;;;;;;13.37;100.00;102227.44;5069330;28;20174;-46
2023/06/05 07:04:16;;;;;;;11.27;8.15;;;;;;;13.87;100.00;102233.19;5070389;28;20162;-46
2023/06/05 07:06:46;;;;;;;10.65;8.35;;;;;;;13.51;100.00;102238.72;5070370;28;20579;-52
2023/06/05 07:09:12;;;;;;;10.07;7.88;;;;;;;13.79;100.00;102228.00;5070380;28;20182;-47
2023/06/05 07:11:38;;;;;;;13.82;8.35;;;;;;;13.69;100.00;102229.22;5070290;28;20174;-46
2023/06/05 07:14:03;;;;;;;11.18;8.85;;;;;;;14.01;100.00;102219.28;5070397;28;20628;-47
2023/06/05 07:16:29;;;;;;;10.95;8.18;;;;;;;13.82;100.00;102224.38;5068127;28;20277;-48
2023/06/05 07:18:55;;;;;;;11.60;7.85;;;;;;;14.25;100.00;102220.34;5070607;28;20273;-44
2023/06/05 07:21:21;;;;;;;9.50;8.10;;;;;;;14.47;100.00;102214.28;5070697;28;20243;-47
2023/06/05 07:23:53;;;;;;;14.98;8.18;;;;;;;15.02;100.00;102207.06;5069961;28;20258;-46
2023/06/05 07:26:19;;;;;;;14.85;7.15;;;;;;;15.33;99.68;102208.69;5069950;28;20248;-49
2023/06/05 07:28:46;;;;;;;12.38;7.95;;;;;;;15.49;98.19;102207.19;5070209;28;20167;-48
2023/06/05 07:31:13;;;;;;;12.30;7.30;;;;;;;15.32;97.07;102209.63;5068877;28;20287;-48
2023/06/05 07:33:39;;;;;;;13.32;7.47;;;;;;;15.70;96.21;102202.81;5070410;28;20163;-49
2023/06/05 07:36:05;;;;;;;11.98;7.05;;;;;;;15.75;94.67;102205.38;5050667;28;20244;-49
2023/06/05 07:38:32;;;;;;;9.82;7.50;;;;;;;15.66;93.75;102201.16;5050250;28;20194;-46
2023/06/05 07:40:58;;;;;;;12.68;7.43;;;;;;;15.51;94.11;102205.31;5048802;28;20187;-48
2023/06/05 07:43:24;;;;;;;11.30;7.35;;;;;;;15.16;92.82;102196.66;5052598;28;20264;-51
2023/06/05 07:45:50;;;;;;;8.88;6.43;;;;;;;16.04;92.62;102201.53;5055362;28;20195;-51
2023/06/05 07:48:15;;;;;;;9.30;6.22;;;;;;;16.39;91.10;102193.84;5053517;28;20164;-51
2023/06/05 07:50:41;;;;;;;12.38;6.53;;;;;;;16.46;88.85;102193.53;5055671;28;20292;-50
2023/06/05 07:53:06;;;;;;;9.90;6.78;;;;;;;16.31;87.67;102191.47;5056014;28;20191;-50
2023/06/05 07:55:32;;;;;;;8.50;6.43;;;;;;;16.63;87.50;102182.00;5057433;28;20290;-50
2023/06/05 07:57:59;;;;;;;12.02;6.70;;;;;;;16.75;87.14;102191.44;5058748;28;20179;-51
2023/06/05 08:00:26;;;;;;;9.50;6.40;;;;;;;16.40;85.97;102187.50;5063455;28;20178;-49
2023/06/05 08:02:53;;;;;;;10.35;7.57;;;;;;;16.82;86.83;102179.44;5061214;28;20166;-49
2023/06/05 08:05:19;;;;;;;7.35;6.45;;;;;;;16.23;86.23;102191.75;5055781;28;20232;-49
2023/06/05 08:07:45;;;;;;;14.00;7.30;;;;;;;16.02;87.82;102193.47;5049493;28;20191;-50
2023/06/05 08:10:12;;;;;;;10.68;6.80;;;;;;;16.65;88.52;102195.47;5057286;28;20669;-49
2023/06/05 08:12:37;;;;;;;10.00;6.53;;;;;;;17.33;87.78;102198.00;5058491;28;20212;-50
2023/06/05 08:15:03;;;;;;;9.90;6.68;;;;;;;16.34;87.13;102194.03;5058169;28;20183;-48
2023/06/05 08:17:29;;;;;;;13.32;7.22;;;;;;;16.62;87.63;102195.59;5051643;28;20221;-47
2023/06/05 08:19:54;;;;;;;12.65;7.25;;;;;;;16.30;86.41;102200.50;5053239;22;20215;-44
2023/06/05 08:22:20;;;;;;;10.32;7.32;;;;;;;16.27;89.28;102208.75;5044053;28;20659;-44
2023/06/05 08:24:48;;;;;;;10.95;7.35;;;;;;;17.02;88.86;102200.22;5041532;28;20293;-45
2023/06/05 08:27:14;;;;;;;9.95;7.60;;;;;;;16.54;87.93;102209.44;5041891;28;20558;-45
2023/06/05 08:29:39;;;;;;;9.95;7.55;;;;;;;16.72;88.46;102194.25;5037705;28;20218;-44
2023/06/05 08:32:05;;;;;;;8.63;7.35;;;;;;;16.63;88.95;102197.34;5043266;28;20282;-43
2023/06/05 08:34:31;;;;;;;10.45;7.53;;;;;;;16.70;88.82;102198.84;5038804;28;20181;-43
2023/06/05 08:37:00;;;;;;;10.02;7.40;;;;;;;16.62;88.14;102193.78;5035954;28;20207;-43
2023/06/05 08:39:31;;;;;;;9.63;7.47;;;;;;;16.80;88.00;102194.84;5035232;28;20598;-44
2023/06/05 08:42:00;;;;;;;13.90;7.57;;;;;;;16.66;87.39;102194.50;5039874;28;20256;-45
2023/06/05 08:44:28;;;;;;;10.57;7.18;;;;;;;16.89;87.78;102180.91;5039842;28;20183;-45
2023/06/05 08:47:02;;;;;;;9.95;7.80;;;;;;;16.86;86.73;102200.00;5036856;28;20200;-43
2023/06/05 08:49:36;;;;;;;10.60;7.70;;;;;;;16.63;87.18;102184.69;5038863;28;20276;-45
2023/06/05 08:52:09;;;;;;;9.32;7.40;;;;;;;16.78;87.83;102194.00;5038264;28;20237;-45
2023/06/05 08:54:38;;;;;;;11.55;7.30;;;;;;;16.91;87.87;102193.53;5035697;28;20180;-43
2023/06/05 08:57:06;;;;;;;12.50;8.60;;;;;;;17.00;87.44;102191.28;5033999;28;20207;-46
2023/06/05 08:59:32;;;;;;;9.90;7.28;;;;;;;17.16;86.32;102186.06;5039064;28;20657;-45
2023/06/05 09:01:58;;;;;;;10.23;7.78;;;;;;;17.00;85.86;102193.13;5043186;28;20184;-45
2023/06/05 09:04:25;;;;;;;8.55;7.28;;;;;;;16.89;86.86;102186.31;5042158;28;20263;-45
2023/06/05 09:06:54;;;;;;;11.98;8.10;;;;;;;16.91;86.78;102190.81;5036881;28;20230;-46
2023/06/05 09:09:20;;;;;;;12.77;8.23;;;;;;;17.02;87.12;102191.22;5038252;28;20172;-44
2023/06/05 09:11:46;;;;;;;8.85;7.47;;;;;;;17.04;86.64;102179.38;5037524;28;20207;-44
2023/06/05 09:14:12;;;;;;;14.27;8.07;;;;;;;16.79;86.09;102189.47;5048237;28;20626;-45
2023/06/05 09:16:43;;;;;;;8.63;6.78;;;;;;;16.94;86.52;102185.25;5040719;28;20290;-45
2023/06/05 09:19:11;;;;;;;9.90;6.70;;;;;;;17.33;86.05;102189.88;5039004;28;20256;-44
2023/06/05 09:21:36;;;;;;;9.02;6.68;;;;;;;17.00;85.28;102185.00;5040340;28;20199;-45
2023/06/05 09:24:18;;;;;;;12.02;6.38;;;;;;;17.13;84.90;102186.22;5043479;28;20296;-44
2023/06/05 09:26:55;;;;;;;14.32;6.93;;;;;;;16.89;84.47;102174.63;5040983;28;20246;-45
2023/06/05 09:29:22;;;;;;;8.75;5.40;;;;;;;17.12;84.51;102180.84;5038484;28;20199;-42
2023/06/05 09:31:49;;;;;;;6.80;5.40;;;;;;;17.12;83.84;102176.34;5041466;28;20180;-45
2023/06/05 09:34:26;;;;;;;7.90;6.03;;;;;;;17.48;82.42;102171.06;5047038;28;20287;-46
2023/06/05 09:36:51;;;;;;;8.10;5.30;;;;;;;17.38;81.50;102174.28;5042537;28;20314;-45
2023/06/05 09:39:19;;;;;;;9.77;5.75;;;;;;;17.37;81.59;102180.66;5045872;28;20407;-45
2023/06/05 09:41:51;;;;;;;13.30;5.72;;;;;;;17.09;81.87;102176.47;5034245;28;20275;-43
2023/06/05 09:44:16;;;;;;;10.68;5.68;;;;;;;17.33;82.65;102184.44;5037422;28;20556;-45
2023/06/05 09:47:03;;;;;;;11.88;5.53;;;;;;;17.22;82.48;102177.66;5041601;28;20191;-40
2023/06/05 09:49:38;;;;;;;12.00;6.32;;;;;;;17.33;82.17;102179.91;5045789;28;20194;-45
2023/06/05 09:52:04;;;;;;;9.73;5.00;;;;;;;17.38;82.39;102182.41;5038058;28;20261;-43
2023/06/05 09:54:31;;;;;;;11.43;5.20;;;;;;;17.49;82.02;102180.06;5040691;28;20179;-41
2023/06/05 09:56:59;;;;;;;11.52;4.88;;;;;;;17.34;80.52;102160.00;5038878;28;20237;-42
2023/06/05 09:59:29;;;;;;;9.80;4.88;;;;;;;17.63;80.24;102174.03;5037831;28;20275;-42
2023/06/05 10:01:57;;;;;;;8.95;4.55;;;;;;;17.53;80.42;102161.84;5037376;28;20605;-42
2023/06/05 10:04:26;;;;;;;8.43;4.25;;;;;;;17.64;79.14;102160.41;5038079;28;20202;-43
2023/06/05 10:06:53;;;;;;;8.38;3.92;;;;;;;17.75;78.17;102151.75;5039164;28;20809;-42
2023/06/05 10:09:19;;;;;;;11.98;4.70;;;;;;;17.63;77.04;102153.22;5039890;28;20233;-44
2023/06/05 10:11:48;;;;;;;8.98;4.35;;;;;;;17.77;76.42;102144.44;5041291;28;20219;-43
2023/06/05 10:14:15;;;;;;;7.50;4.15;;;;;;;17.98;75.51;102144.41;5041026;28;20207;-46
2023/06/05 10:16:42;;;;;;;9.77;4.60;;;;;;;17.82;75.40;102139.72;5041584;28;20308;-42
2023/06/05 10:19:09;;;;;;;9.13;4.47;;;;;;;17.53;76.05;102138.34;5041714;28;20306;-41
2023/06/05 10:21:36;;;;;;;8.23;4.93;;;;;;;17.68;76.90;102134.91;5046497;28;20251;-42
2023/06/05 10:24:05;;;;;;;12.20;4.85;;;;;;;17.65;77.17;102147.75;5041351;28;20290;-43
2023/06/05 10:26:50;;;;;;;9.02;5.25;;;;;;;17.45;77.55;102146.84;5038410;28;20642;-43
2023/06/05 10:29:53;;;;;;;10.05;5.20;;;;;;;17.44;77.27;102141.47;5047868;28;20209;-42
2023/06/05 10:32:19;;;;;;;6.32;4.35;;;;;;;17.47;76.35;102135.91;5038153;28;20666;-44
2023/06/05 10:34:49;;;;;;;15.95;5.40;;;;;;;17.67;76.81;102145.84;5046718;28;20192;-43
2023/06/05 10:37:23;;;;;;;10.82;5.63;;;;;;;17.52;77.55;102139.31;5042927;28;20685;-43
2023/06/05 10:39:50;;;;;;;12.00;4.75;;;;;;;17.70;77.76;102135.72;5039478;28;20645;-44
2023/06/05 10:42:23;;;;;;;7.63;4.75;;;;;;;17.54;77.48;102137.41;5041194;28;20192;-42
2023/06/05 10:44:49;;;;;;;7.93;4.85;;;;;;;17.64;77.82;102137.84;5039910;28;20191;-44
2023/06/05 10:47:33;;;;;;;8.75;4.78;;;;;;;17.53;76.93;102135.63;5041172;28;20214;-42
2023/06/05 10:50:26;;;;;;;11.40;5.65;;;;;;;17.50;78.43;102143.91;5033921;28;20561;-41
2023/06/05 10:52:53;;;;;;;10.90;5.13;;;;;;;17.38;78.00;102139.06;5041346;28;20631;-43
2023/06/05 10:55:21;;;;;;;10.27;5.95;;;;;;;17.52;78.04;102149.28;5037819;28;20651;-45
2023/06/05 10:58:02;;;;;;;11.30;6.00;;;;;;;17.34;78.28;102137.44;5037434;28;20203;-48
2023/06/05 11:00:31;;;;;;;9.75;4.57;;;;;;;17.47;77.42;102131.41;5041658;28;20190;-46
2023/06/05 11:02:57;;;;;;;9.50;4.68;;;;;;;17.73;76.95;102122.97;5038003;28;20190;-47
2023/06/05 11:05:23;;;;;;;6.80;4.32;;;;;;;17.73;76.04;102131.09;5038731;28;20262;-47
2023/06/05 11:08:09;;;;;;;9.73;4.38;;;;;;;17.84;75.85;102120.66;5043508;28;20219;-46
2023/06/05 11:10:35;;;;;;;8.82;5.05;;;;;;;17.61;75.79;102119.03;5045570;28;20193;-48
2023/06/05 11:13:01;;;;;;;6.82;4.63;;;;;;;17.93;75.74;102133.78;5045156;28;20178;-48
2023/06/05 11:15:38;;;;;;;7.80;4.95;;;;;;;17.98;75.30;102128.16;5035744;28;20207;-47
2023/06/05 11:18:28;;;;;;;7.20;3.90;;;;;;;17.84;74.10;102110.72;5036710;28;20210;-46
2023/06/05 11:20:54;;;;;;;9.13;4.75;;;;;;;17.60;74.76;102112.75;5039574;28;20253;-47
2023/06/05 11:23:21;;;;;;;10.00;4.63;;;;;;;17.52;75.15;102114.91;5035944;28;20188;-45
2023/06/05 11:25:48;;;;;;;8.88;4.03;;;;;;;17.83;74.87;102102.66;5036184;28;20681;-47